sensor_id;sensor_type;location;lat;lon;timestamp;P1;durP1;ratioP1;P2;durP2;ratioP2
73382;SDS011;61600;48.126;11.542;2022-09-09T00:03:44;3.22;;;1.15;;
73382;SDS011;61600;48.126;11.542;2022-09-09T00:06:27;2.72;;;1.20;;
73382;SDS011;61600;48.126;11.542;2022-09-09T00:09:13;3.67;;;1.27;;
73382;SDS011;61600;48.126;11.542;2022-09-09T00:11:51;3.33;;;1.27;;
73382;SDS011;61600;48.126;11.542;2022-09-09T00:14:20;3.45;;;1.33;;
73382;SDS011;61600;48.126;11.542;2022-09-09T00:16:50;3.28;;;1.30;;
73382;SDS011;61600;48.126;11.542;2022-09-09T00:24:26;3.08;;;1.20;;
73382;SDS011;61600;48.126;11.542;2022-09-09T00:26:53;2.28;;;1.30;;
73382;SDS011;61600;48.126;11.542;2022-09-09T00:29:27;2.22;;;1.10;;
73382;SDS011;61600;48.126;11.542;2022-09-09T00:31:57;3.25;;;1.30;;
73382;SDS011;61600;48.126;11.542;2022-09-09T00:34:25;3.05;;;1.13;;
73382;SDS011;61600;48.126;11.542;2022-09-09T00:36:52;1.92;;;1.10;;
73382;SDS011;61600;48.126;11.542;2022-09-09T00:39:25;3.88;;;1.00;;
73382;SDS011;61600;48.126;11.542;2022-09-09T00:42:07;3.10;;;1.25;;
73382;SDS011;61600;48.126;11.542;2022-09-09T00:44:36;1.92;;;1.00;;
73382;SDS011;61600;48.126;11.542;2022-09-09T00:49:54;3.08;;;1.38;;
73382;SDS011;61600;48.126;11.542;2022-09-09T00:57:34;4.15;;;1.55;;
73382;SDS011;61600;48.126;11.542;2022-09-09T01:00:15;2.30;;;0.90;;
73382;SDS011;61600;48.126;11.542;2022-09-09T01:08:56;4.95;;;1.80;;
73382;SDS011;61600;48.126;11.542;2022-09-09T01:11:00;4.15;;;1.55;;
73382;SDS011;61600;48.126;11.542;2022-09-09T01:13:33;5.45;;;1.98;;
73382;SDS011;61600;48.126;11.542;2022-09-09T01:16:00;3.72;;;1.63;;
73382;SDS011;61600;48.126;11.542;2022-09-09T01:18:28;3.90;;;1.63;;
73382;SDS011;61600;48.126;11.542;2022-09-09T01:20:58;8.18;;;1.80;;
73382;SDS011;61600;48.126;11.542;2022-09-09T01:26:09;4.32;;;1.80;;
73382;SDS011;61600;48.126;11.542;2022-09-09T01:28:39;4.07;;;1.80;;
73382;SDS011;61600;48.126;11.542;2022-09-09T01:31:06;6.25;;;1.70;;
73382;SDS011;61600;48.126;11.542;2022-09-09T01:33:31;4.03;;;1.70;;
73382;SDS011;61600;48.126;11.542;2022-09-09T01:35:59;3.40;;;1.48;;
73382;SDS011;61600;48.126;11.542;2022-09-09T01:38:27;5.03;;;1.30;;
73382;SDS011;61600;48.126;11.542;2022-09-09T01:40:54;3.78;;;1.20;;
73382;SDS011;61600;48.126;11.542;2022-09-09T01:43:22;3.90;;;1.30;;
73382;SDS011;61600;48.126;11.542;2022-09-09T01:45:49;5.28;;;1.33;;
73382;SDS011;61600;48.126;11.542;2022-09-09T01:48:16;2.80;;;1.15;;
73382;SDS011;61600;48.126;11.542;2022-09-09T01:50:42;2.58;;;1.02;;
73382;SDS011;61600;48.126;11.542;2022-09-09T01:53:07;2.70;;;1.00;;
73382;SDS011;61600;48.126;11.542;2022-09-09T01:55:37;3.78;;;0.95;;
73382;SDS011;61600;48.126;11.542;2022-09-09T02:00:52;3.13;;;1.67;;
73382;SDS011;61600;48.126;11.542;2022-09-09T02:03:23;3.72;;;1.17;;
73382;SDS011;61600;48.126;11.542;2022-09-09T02:06:13;2.15;;;1.10;;
73382;SDS011;61600;48.126;11.542;2022-09-09T02:08:50;2.65;;;1.20;;
73382;SDS011;61600;48.126;11.542;2022-09-09T02:13:41;3.73;;;1.30;;
73382;SDS011;61600;48.126;11.542;2022-09-09T02:21:12;2.50;;;1.10;;
73382;SDS011;61600;48.126;11.542;2022-09-09T02:23:39;1.58;;;1.00;;
73382;SDS011;61600;48.126;11.542;2022-09-09T02:26:05;2.90;;;1.05;;
73382;SDS011;61600;48.126;11.542;2022-09-09T02:28:32;3.67;;;1.25;;
73382;SDS011;61600;48.126;11.542;2022-09-09T02:31:00;1.80;;;0.90;;
73382;SDS011;61600;48.126;11.542;2022-09-09T02:33:26;2.42;;;1.30;;
73382;SDS011;61600;48.126;11.542;2022-09-09T02:35:53;3.28;;;1.17;;
73382;SDS011;61600;48.126;11.542;2022-09-09T02:38:21;2.47;;;1.05;;
73382;SDS011;61600;48.126;11.542;2022-09-09T02:40:50;3.30;;;1.08;;
73382;SDS011;61600;48.126;11.542;2022-09-09T02:43:15;2.53;;;1.10;;
73382;SDS011;61600;48.126;11.542;2022-09-09T02:48:25;3.33;;;1.02;;
73382;SDS011;61600;48.126;11.542;2022-09-09T02:53:20;2.13;;;1.08;;
73382;SDS011;61600;48.126;11.542;2022-09-09T02:55:54;2.42;;;1.00;;
73382;SDS011;61600;48.126;11.542;2022-09-09T02:58:20;3.08;;;1.00;;
73382;SDS011;61600;48.126;11.542;2022-09-09T03:00:47;3.22;;;1.02;;
73382;SDS011;61600;48.126;11.542;2022-09-09T03:03:12;1.70;;;0.90;;
73382;SDS011;61600;48.126;11.542;2022-09-09T03:05:38;2.63;;;1.02;;
73382;SDS011;61600;48.126;11.542;2022-09-09T03:08:04;4.50;;;0.90;;
73382;SDS011;61600;48.126;11.542;2022-09-09T03:10:31;1.35;;;0.90;;
73382;SDS011;61600;48.126;11.542;2022-09-09T03:12:56;1.35;;;0.90;;
73382;SDS011;61600;48.126;11.542;2022-09-09T03:15:22;1.92;;;1.38;;
73382;SDS011;61600;48.126;11.542;2022-09-09T03:17:48;1.60;;;1.00;;
73382;SDS011;61600;48.126;11.542;2022-09-09T03:20:14;2.13;;;1.02;;
73382;SDS011;61600;48.126;11.542;2022-09-09T03:22:40;2.33;;;0.90;;
73382;SDS011;61600;48.126;11.542;2022-09-09T03:25:06;1.60;;;1.00;;
73382;SDS011;61600;48.126;11.542;2022-09-09T03:27:31;2.55;;;0.93;;
73382;SDS011;61600;48.126;11.542;2022-09-09T03:29:58;1.83;;;0.90;;
73382;SDS011;61600;48.126;11.542;2022-09-09T03:32:24;2.78;;;1.00;;
73382;SDS011;61600;48.126;11.542;2022-09-09T03:34:51;2.50;;;1.08;;
73382;SDS011;61600;48.126;11.542;2022-09-09T03:37:17;1.98;;;0.90;;
73382;SDS011;61600;48.126;11.542;2022-09-09T03:39:43;3.00;;;1.20;;
73382;SDS011;61600;48.126;11.542;2022-09-09T03:42:09;2.88;;;1.25;;
73382;SDS011;61600;48.126;11.542;2022-09-09T03:44:35;2.50;;;1.08;;
73382;SDS011;61600;48.126;11.542;2022-09-09T03:47:01;2.78;;;1.10;;
73382;SDS011;61600;48.126;11.542;2022-09-09T03:49:26;2.63;;;1.30;;
73382;SDS011;61600;48.126;11.542;2022-09-09T03:51:54;2.00;;;0.93;;
73382;SDS011;61600;48.126;11.542;2022-09-09T03:54:20;2.33;;;1.38;;
73382;SDS011;61600;48.126;11.542;2022-09-09T03:56:45;2.28;;;0.98;;
73382;SDS011;61600;48.126;11.542;2022-09-09T03:59:10;2.30;;;1.00;;
73382;SDS011;61600;48.126;11.542;2022-09-09T04:01:36;2.40;;;1.00;;
73382;SDS011;61600;48.126;11.542;2022-09-09T04:04:01;2.30;;;1.10;;
73382;SDS011;61600;48.126;11.542;2022-09-09T04:06:27;2.50;;;1.95;;
73382;SDS011;61600;48.126;11.542;2022-09-09T04:08:52;2.80;;;1.00;;
73382;SDS011;61600;48.126;11.542;2022-09-09T04:11:18;2.72;;;1.20;;
73382;SDS011;61600;48.126;11.542;2022-09-09T04:13:43;2.58;;;1.15;;
73382;SDS011;61600;48.126;11.542;2022-09-09T04:16:10;2.65;;;1.00;;
73382;SDS011;61600;48.126;11.542;2022-09-09T04:18:36;2.85;;;1.10;;
73382;SDS011;61600;48.126;11.542;2022-09-09T04:21:01;2.60;;;1.13;;
73382;SDS011;61600;48.126;11.542;2022-09-09T04:23:29;2.13;;;1.00;;
73382;SDS011;61600;48.126;11.542;2022-09-09T04:25:55;2.45;;;1.02;;
73382;SDS011;61600;48.126;11.542;2022-09-09T04:28:22;2.50;;;1.10;;
73382;SDS011;61600;48.126;11.542;2022-09-09T04:30:48;3.22;;;1.23;;
73382;SDS011;61600;48.126;11.542;2022-09-09T04:33:14;1.73;;;1.00;;
73382;SDS011;61600;48.126;11.542;2022-09-09T04:35:43;4.88;;;1.20;;
73382;SDS011;61600;48.126;11.542;2022-09-09T04:38:09;2.42;;;0.90;;
73382;SDS011;61600;48.126;11.542;2022-09-09T04:40:34;4.20;;;1.25;;
73382;SDS011;61600;48.126;11.542;2022-09-09T04:43:01;3.60;;;1.35;;
73382;SDS011;61600;48.126;11.542;2022-09-09T04:45:28;2.50;;;1.10;;
73382;SDS011;61600;48.126;11.542;2022-09-09T04:47:53;3.35;;;1.20;;
73382;SDS011;61600;48.126;11.542;2022-09-09T04:50:19;2.97;;;0.82;;
73382;SDS011;61600;48.126;11.542;2022-09-09T04:52:48;3.08;;;1.27;;
73382;SDS011;61600;48.126;11.542;2022-09-09T04:55:14;2.10;;;1.10;;
73382;SDS011;61600;48.126;11.542;2022-09-09T04:57:40;1.75;;;1.20;;
73382;SDS011;61600;48.126;11.542;2022-09-09T05:00:05;2.42;;;1.10;;
73382;SDS011;61600;48.126;11.542;2022-09-09T05:02:31;2.28;;;1.13;;
73382;SDS011;61600;48.126;11.542;2022-09-09T05:04:57;2.20;;;1.00;;
73382;SDS011;61600;48.126;11.542;2022-09-09T05:07:23;4.13;;;1.27;;
73382;SDS011;61600;48.126;11.542;2022-09-09T05:09:48;4.43;;;1.10;;
73382;SDS011;61600;48.126;11.542;2022-09-09T05:12:17;2.03;;;1.17;;
73382;SDS011;61600;48.126;11.542;2022-09-09T05:14:43;2.38;;;0.90;;
73382;SDS011;61600;48.126;11.542;2022-09-09T05:17:09;2.13;;;1.10;;
73382;SDS011;61600;48.126;11.542;2022-09-09T05:19:34;2.65;;;0.90;;
73382;SDS011;61600;48.126;11.542;2022-09-09T05:21:59;5.78;;;1.05;;
73382;SDS011;61600;48.126;11.542;2022-09-09T05:24:26;3.83;;;1.20;;
73382;SDS011;61600;48.126;11.542;2022-09-09T05:26:51;3.65;;;1.00;;
73382;SDS011;61600;48.126;11.542;2022-09-09T05:29:17;3.37;;;1.30;;
73382;SDS011;61600;48.126;11.542;2022-09-09T05:31:47;3.45;;;1.00;;
73382;SDS011;61600;48.126;11.542;2022-09-09T05:34:12;2.83;;;1.15;;
73382;SDS011;61600;48.126;11.542;2022-09-09T05:36:38;3.70;;;0.95;;
73382;SDS011;61600;48.126;11.542;2022-09-09T05:39:03;4.70;;;1.07;;
73382;SDS011;61600;48.126;11.542;2022-09-09T05:41:29;2.55;;;1.10;;
73382;SDS011;61600;48.126;11.542;2022-09-09T05:43:55;2.22;;;1.05;;
73382;SDS011;61600;48.126;11.542;2022-09-09T05:46:22;3.92;;;1.00;;
73382;SDS011;61600;48.126;11.542;2022-09-09T05:48:48;2.53;;;0.90;;
73382;SDS011;61600;48.126;11.542;2022-09-09T05:51:19;4.55;;;1.38;;
73382;SDS011;61600;48.126;11.542;2022-09-09T05:53:47;3.50;;;1.08;;
73382;SDS011;61600;48.126;11.542;2022-09-09T05:56:17;3.25;;;1.00;;
73382;SDS011;61600;48.126;11.542;2022-09-09T05:58:43;2.10;;;1.00;;
73382;SDS011;61600;48.126;11.542;2022-09-09T06:01:10;2.88;;;0.90;;
73382;SDS011;61600;48.126;11.542;2022-09-09T06:03:37;3.38;;;1.15;;
73382;SDS011;61600;48.126;11.542;2022-09-09T06:06:03;2.40;;;1.00;;
73382;SDS011;61600;48.126;11.542;2022-09-09T06:08:32;3.85;;;1.17;;
73382;SDS011;61600;48.126;11.542;2022-09-09T06:11:09;1.70;;;0.90;;
73382;SDS011;61600;48.126;11.542;2022-09-09T06:13:36;2.42;;;0.95;;
73382;SDS011;61600;48.126;11.542;2022-09-09T06:16:04;3.17;;;1.13;;
73382;SDS011;61600;48.126;11.542;2022-09-09T06:18:30;2.08;;;1.13;;
73382;SDS011;61600;48.126;11.542;2022-09-09T06:21:03;3.08;;;1.27;;
73382;SDS011;61600;48.126;11.542;2022-09-09T06:23:39;1.77;;;0.90;;
73382;SDS011;61600;48.126;11.542;2022-09-09T06:26:31;6.70;;;1.00;;
73382;SDS011;61600;48.126;11.542;2022-09-09T06:28:57;2.80;;;1.10;;
73382;SDS011;61600;48.126;11.542;2022-09-09T06:31:24;3.70;;;1.38;;
73382;SDS011;61600;48.126;11.542;2022-09-09T06:33:51;2.63;;;1.25;;
73382;SDS011;61600;48.126;11.542;2022-09-09T06:36:17;1.65;;;0.85;;
73382;SDS011;61600;48.126;11.542;2022-09-09T06:38:44;1.85;;;0.77;;
73382;SDS011;61600;48.126;11.542;2022-09-09T06:41:14;1.70;;;0.80;;
73382;SDS011;61600;48.126;11.542;2022-09-09T06:43:40;2.95;;;1.33;;
73382;SDS011;61600;48.126;11.542;2022-09-09T06:46:08;6.15;;;1.40;;
73382;SDS011;61600;48.126;11.542;2022-09-09T06:48:35;3.15;;;0.80;;
73382;SDS011;61600;48.126;11.542;2022-09-09T06:53:30;3.88;;;1.25;;
73382;SDS011;61600;48.126;11.542;2022-09-09T06:55:59;2.40;;;0.90;;
73382;SDS011;61600;48.126;11.542;2022-09-09T06:58:26;5.22;;;1.10;;
73382;SDS011;61600;48.126;11.542;2022-09-09T07:00:52;4.00;;;1.08;;
73382;SDS011;61600;48.126;11.542;2022-09-09T07:03:18;2.58;;;1.10;;
73382;SDS011;61600;48.126;11.542;2022-09-09T07:05:53;3.20;;;1.10;;
73382;SDS011;61600;48.126;11.542;2022-09-09T07:08:18;2.83;;;1.13;;
73382;SDS011;61600;48.126;11.542;2022-09-09T07:10:44;2.33;;;0.77;;
73382;SDS011;61600;48.126;11.542;2022-09-09T07:13:09;5.18;;;1.52;;
73382;SDS011;61600;48.126;11.542;2022-09-09T07:15:35;2.33;;;1.10;;
73382;SDS011;61600;48.126;11.542;2022-09-09T07:18:01;3.15;;;1.15;;
73382;SDS011;61600;48.126;11.542;2022-09-09T07:20:27;2.10;;;0.93;;
73382;SDS011;61600;48.126;11.542;2022-09-09T07:22:54;2.22;;;0.90;;
73382;SDS011;61600;48.126;11.542;2022-09-09T07:25:19;2.90;;;1.00;;
73382;SDS011;61600;48.126;11.542;2022-09-09T07:27:46;1.30;;;0.98;;
73382;SDS011;61600;48.126;11.542;2022-09-09T07:30:11;2.47;;;1.40;;
73382;SDS011;61600;48.126;11.542;2022-09-09T07:32:37;2.83;;;1.10;;
73382;SDS011;61600;48.126;11.542;2022-09-09T07:35:02;3.13;;;0.93;;
73382;SDS011;61600;48.126;11.542;2022-09-09T07:37:28;1.45;;;0.77;;
73382;SDS011;61600;48.126;11.542;2022-09-09T07:39:53;1.80;;;0.80;;
73382;SDS011;61600;48.126;11.542;2022-09-09T07:42:22;2.33;;;0.88;;
73382;SDS011;61600;48.126;11.542;2022-09-09T07:44:47;1.53;;;0.60;;
73382;SDS011;61600;48.126;11.542;2022-09-09T07:47:13;1.55;;;0.90;;
73382;SDS011;61600;48.126;11.542;2022-09-09T07:49:38;1.77;;;0.88;;
73382;SDS011;61600;48.126;11.542;2022-09-09T07:52:04;1.98;;;1.02;;
73382;SDS011;61600;48.126;11.542;2022-09-09T07:54:29;2.35;;;0.80;;
73382;SDS011;61600;48.126;11.542;2022-09-09T07:56:55;1.77;;;0.90;;
73382;SDS011;61600;48.126;11.542;2022-09-09T07:59:25;1.65;;;0.82;;
73382;SDS011;61600;48.126;11.542;2022-09-09T08:01:51;2.80;;;0.85;;
73382;SDS011;61600;48.126;11.542;2022-09-09T08:04:20;2.13;;;0.98;;
73382;SDS011;61600;48.126;11.542;2022-09-09T08:06:51;1.58;;;0.88;;
73382;SDS011;61600;48.126;11.542;2022-09-09T08:09:22;2.88;;;1.90;;
73382;SDS011;61600;48.126;11.542;2022-09-09T08:11:50;3.10;;;0.93;;
73382;SDS011;61600;48.126;11.542;2022-09-09T08:16:49;2.10;;;0.85;;
73382;SDS011;61600;48.126;11.542;2022-09-09T08:19:17;5.85;;;0.90;;
73382;SDS011;61600;48.126;11.542;2022-09-09T08:21:46;4.07;;;1.08;;
73382;SDS011;61600;48.126;11.542;2022-09-09T08:24:19;1.65;;;0.90;;
73382;SDS011;61600;48.126;11.542;2022-09-09T08:26:46;3.63;;;0.80;;
73382;SDS011;61600;48.126;11.542;2022-09-09T08:29:19;3.17;;;0.98;;
73382;SDS011;61600;48.126;11.542;2022-09-09T08:31:46;4.97;;;0.90;;
73382;SDS011;61600;48.126;11.542;2022-09-09T08:34:13;1.65;;;0.90;;
73382;SDS011;61600;48.126;11.542;2022-09-09T08:36:42;2.83;;;0.95;;
73382;SDS011;61600;48.126;11.542;2022-09-09T08:39:09;3.45;;;1.05;;
73382;SDS011;61600;48.126;11.542;2022-09-09T08:41:55;5.18;;;1.55;;
73382;SDS011;61600;48.126;11.542;2022-09-09T08:52:52;2.83;;;1.40;;
73382;SDS011;61600;48.126;11.542;2022-09-09T08:57:50;5.38;;;2.13;;
73382;SDS011;61600;48.126;11.542;2022-09-09T09:00:17;3.58;;;1.40;;
73382;SDS011;61600;48.126;11.542;2022-09-09T09:02:48;2.00;;;0.88;;
73382;SDS011;61600;48.126;11.542;2022-09-09T09:11:03;3.60;;;1.30;;
73382;SDS011;61600;48.126;11.542;2022-09-09T09:13:37;4.45;;;1.73;;
73382;SDS011;61600;48.126;11.542;2022-09-09T09:18:51;2.50;;;1.77;;
73382;SDS011;61600;48.126;11.542;2022-09-09T09:23:57;2.80;;;0.90;;
73382;SDS011;61600;48.126;11.542;2022-09-09T09:26:34;4.55;;;0.95;;
73382;SDS011;61600;48.126;11.542;2022-09-09T09:29:01;2.92;;;1.10;;
73382;SDS011;61600;48.126;11.542;2022-09-09T09:31:32;2.03;;;1.17;;
73382;SDS011;61600;48.126;11.542;2022-09-09T09:34:02;1.83;;;1.10;;
73382;SDS011;61600;48.126;11.542;2022-09-09T09:36:45;3.28;;;2.22;;
73382;SDS011;61600;48.126;11.542;2022-09-09T09:39:23;2.50;;;1.20;;
73382;SDS011;61600;48.126;11.542;2022-09-09T09:41:49;2.05;;;0.90;;
73382;SDS011;61600;48.126;11.542;2022-09-09T09:44:32;3.20;;;1.20;;
73382;SDS011;61600;48.126;11.542;2022-09-09T09:49:55;1.55;;;0.80;;
73382;SDS011;61600;48.126;11.542;2022-09-09T09:52:23;3.45;;;1.00;;
73382;SDS011;61600;48.126;11.542;2022-09-09T09:54:49;1.52;;;0.93;;
73382;SDS011;61600;48.126;11.542;2022-09-09T09:57:15;2.22;;;1.02;;
73382;SDS011;61600;48.126;11.542;2022-09-09T09:59:42;1.17;;;0.80;;
73382;SDS011;61600;48.126;11.542;2022-09-09T10:02:13;1.98;;;1.08;;
73382;SDS011;61600;48.126;11.542;2022-09-09T10:04:39;4.13;;;1.40;;
73382;SDS011;61600;48.126;11.542;2022-09-09T10:07:10;5.40;;;1.70;;
73382;SDS011;61600;48.126;11.542;2022-09-09T10:09:36;2.92;;;0.80;;
73382;SDS011;61600;48.126;11.542;2022-09-09T10:23:11;2.40;;;1.08;;
73382;SDS011;61600;48.126;11.542;2022-09-09T10:38:42;4.25;;;0.80;;
73382;SDS011;61600;48.126;11.542;2022-09-09T10:41:14;1.27;;;0.77;;
73382;SDS011;61600;48.126;11.542;2022-09-09T10:52:02;2.58;;;1.13;;
73382;SDS011;61600;48.126;11.542;2022-09-09T10:57:10;3.80;;;0.82;;
73382;SDS011;61600;48.126;11.542;2022-09-09T10:59:38;3.22;;;1.17;;
73382;SDS011;61600;48.126;11.542;2022-09-09T11:02:13;2.88;;;0.98;;
73382;SDS011;61600;48.126;11.542;2022-09-09T11:04:43;2.72;;;1.00;;
73382;SDS011;61600;48.126;11.542;2022-09-09T11:07:15;4.70;;;0.93;;
73382;SDS011;61600;48.126;11.542;2022-09-09T11:09:49;1.80;;;0.80;;
73382;SDS011;61600;48.126;11.542;2022-09-09T11:12:31;0.98;;;0.68;;
73382;SDS011;61600;48.126;11.542;2022-09-09T11:15:08;2.47;;;0.85;;
73382;SDS011;61600;48.126;11.542;2022-09-09T11:17:52;2.05;;;0.80;;
73382;SDS011;61600;48.126;11.542;2022-09-09T11:20:22;2.58;;;1.00;;
73382;SDS011;61600;48.126;11.542;2022-09-09T11:22:51;1.15;;;0.70;;
73382;SDS011;61600;48.126;11.542;2022-09-09T11:25:44;2.05;;;0.70;;
73382;SDS011;61600;48.126;11.542;2022-09-09T11:34:04;2.15;;;0.80;;
73382;SDS011;61600;48.126;11.542;2022-09-09T11:39:24;1.58;;;0.70;;
73382;SDS011;61600;48.126;11.542;2022-09-09T11:41:51;3.85;;;0.82;;
73382;SDS011;61600;48.126;11.542;2022-09-09T11:44:17;1.08;;;0.47;;
73382;SDS011;61600;48.126;11.542;2022-09-09T11:46:46;1.83;;;0.65;;
73382;SDS011;61600;48.126;11.542;2022-09-09T11:51:59;1.10;;;0.50;;
73382;SDS011;61600;48.126;11.542;2022-09-09T11:56:50;2.35;;;0.73;;
73382;SDS011;61600;48.126;11.542;2022-09-09T11:59:20;1.08;;;0.52;;
73382;SDS011;61600;48.126;11.542;2022-09-09T12:01:50;1.52;;;0.55;;
73382;SDS011;61600;48.126;11.542;2022-09-09T12:06:46;2.57;;;0.60;;
73382;SDS011;61600;48.126;11.542;2022-09-09T12:17:10;1.77;;;0.63;;
73382;SDS011;61600;48.126;11.542;2022-09-09T12:19:42;1.77;;;0.70;;
73382;SDS011;61600;48.126;11.542;2022-09-09T12:24:41;1.85;;;0.57;;
73382;SDS011;61600;48.126;11.542;2022-09-09T12:27:31;1.55;;;0.60;;
73382;SDS011;61600;48.126;11.542;2022-09-09T12:30:09;1.25;;;0.63;;
73382;SDS011;61600;48.126;11.542;2022-09-09T12:32:36;1.40;;;0.63;;
73382;SDS011;61600;48.126;11.542;2022-09-09T12:37:38;0.95;;;0.50;;
73382;SDS011;61600;48.126;11.542;2022-09-09T12:40:14;1.90;;;0.80;;
73382;SDS011;61600;48.126;11.542;2022-09-09T12:42:43;2.22;;;0.70;;
73382;SDS011;61600;48.126;11.542;2022-09-09T12:45:19;2.20;;;0.90;;
73382;SDS011;61600;48.126;11.542;2022-09-09T12:47:56;1.67;;;0.80;;
73382;SDS011;61600;48.126;11.542;2022-09-09T12:52:51;2.97;;;0.95;;
73382;SDS011;61600;48.126;11.542;2022-09-09T12:55:19;1.85;;;0.60;;
73382;SDS011;61600;48.126;11.542;2022-09-09T12:57:47;2.30;;;0.60;;
73382;SDS011;61600;48.126;11.542;2022-09-09T13:00:22;2.25;;;0.68;;
73382;SDS011;61600;48.126;11.542;2022-09-09T13:02:53;1.63;;;0.60;;
73382;SDS011;61600;48.126;11.542;2022-09-09T13:05:21;1.02;;;0.68;;
73382;SDS011;61600;48.126;11.542;2022-09-09T13:07:47;2.03;;;0.55;;
73382;SDS011;61600;48.126;11.542;2022-09-09T13:10:13;1.73;;;0.60;;
73382;SDS011;61600;48.126;11.542;2022-09-09T13:12:40;1.60;;;0.80;;
73382;SDS011;61600;48.126;11.542;2022-09-09T13:15:12;1.83;;;0.75;;
73382;SDS011;61600;48.126;11.542;2022-09-09T13:17:40;1.35;;;0.47;;
73382;SDS011;61600;48.126;11.542;2022-09-09T13:20:06;1.48;;;0.68;;
73382;SDS011;61600;48.126;11.542;2022-09-09T13:22:40;3.83;;;0.80;;
73382;SDS011;61600;48.126;11.542;2022-09-09T13:27:39;1.98;;;0.68;;
73382;SDS011;61600;48.126;11.542;2022-09-09T13:35:31;2.15;;;0.60;;
73382;SDS011;61600;48.126;11.542;2022-09-09T13:37:57;1.25;;;0.60;;
73382;SDS011;61600;48.126;11.542;2022-09-09T13:40:23;1.17;;;0.80;;
73382;SDS011;61600;48.126;11.542;2022-09-09T13:42:54;1.27;;;0.80;;
73382;SDS011;61600;48.126;11.542;2022-09-09T13:45:21;2.92;;;0.65;;
73382;SDS011;61600;48.126;11.542;2022-09-09T13:47:48;0.98;;;0.60;;
73382;SDS011;61600;48.126;11.542;2022-09-09T13:50:18;0.60;;;0.55;;
73382;SDS011;61600;48.126;11.542;2022-09-09T13:52:45;2.45;;;0.50;;
73382;SDS011;61600;48.126;11.542;2022-09-09T13:55:12;1.20;;;0.50;;
73382;SDS011;61600;48.126;11.542;2022-09-09T13:57:38;3.28;;;0.77;;
73382;SDS011;61600;48.126;11.542;2022-09-09T14:00:04;1.40;;;0.55;;
73382;SDS011;61600;48.126;11.542;2022-09-09T14:02:31;1.65;;;0.60;;
73382;SDS011;61600;48.126;11.542;2022-09-09T14:04:57;2.17;;;0.52;;
73382;SDS011;61600;48.126;11.542;2022-09-09T14:07:25;0.55;;;0.40;;
73382;SDS011;61600;48.126;11.542;2022-09-09T14:09:51;1.42;;;0.50;;
73382;SDS011;61600;48.126;11.542;2022-09-09T14:14:43;1.80;;;0.60;;
73382;SDS011;61600;48.126;11.542;2022-09-09T14:17:09;1.92;;;0.80;;
73382;SDS011;61600;48.126;11.542;2022-09-09T14:19:35;1.30;;;0.60;;
73382;SDS011;61600;48.126;11.542;2022-09-09T14:22:02;0.52;;;0.43;;
73382;SDS011;61600;48.126;11.542;2022-09-09T14:24:30;1.95;;;0.95;;
73382;SDS011;61600;48.126;11.542;2022-09-09T14:26:55;2.05;;;0.80;;
73382;SDS011;61600;48.126;11.542;2022-09-09T14:29:21;1.58;;;1.20;;
73382;SDS011;61600;48.126;11.542;2022-09-09T14:31:47;1.50;;;0.50;;
73382;SDS011;61600;48.126;11.542;2022-09-09T14:34:12;1.15;;;0.60;;
73382;SDS011;61600;48.126;11.542;2022-09-09T14:36:38;1.52;;;0.60;;
73382;SDS011;61600;48.126;11.542;2022-09-09T14:39:04;1.83;;;0.85;;
73382;SDS011;61600;48.126;11.542;2022-09-09T14:41:29;2.22;;;0.65;;
73382;SDS011;61600;48.126;11.542;2022-09-09T14:44:01;0.77;;;0.50;;
73382;SDS011;61600;48.126;11.542;2022-09-09T14:46:31;4.22;;;0.85;;
73382;SDS011;61600;48.126;11.542;2022-09-09T14:48:58;1.10;;;0.50;;
73382;SDS011;61600;48.126;11.542;2022-09-09T14:51:24;1.48;;;0.70;;
73382;SDS011;61600;48.126;11.542;2022-09-09T14:53:51;0.93;;;0.45;;
73382;SDS011;61600;48.126;11.542;2022-09-09T14:56:17;1.77;;;0.80;;
73382;SDS011;61600;48.126;11.542;2022-09-09T14:58:46;2.15;;;0.50;;
73382;SDS011;61600;48.126;11.542;2022-09-09T15:01:16;3.00;;;1.08;;
73382;SDS011;61600;48.126;11.542;2022-09-09T15:03:42;3.65;;;0.82;;
73382;SDS011;61600;48.126;11.542;2022-09-09T15:06:09;1.10;;;0.50;;
73382;SDS011;61600;48.126;11.542;2022-09-09T15:08:36;2.10;;;0.50;;
73382;SDS011;61600;48.126;11.542;2022-09-09T15:11:02;3.55;;;0.73;;
73382;SDS011;61600;48.126;11.542;2022-09-09T15:13:28;1.95;;;0.47;;
73382;SDS011;61600;48.126;11.542;2022-09-09T15:15:54;1.25;;;0.50;;
73382;SDS011;61600;48.126;11.542;2022-09-09T15:18:20;1.30;;;0.60;;
73382;SDS011;61600;48.126;11.542;2022-09-09T15:20:46;0.88;;;0.60;;
73382;SDS011;61600;48.126;11.542;2022-09-09T15:23:13;3.95;;;0.80;;
73382;SDS011;61600;48.126;11.542;2022-09-09T15:25:49;1.23;;;0.50;;
73382;SDS011;61600;48.126;11.542;2022-09-09T15:28:15;2.47;;;0.77;;
73382;SDS011;61600;48.126;11.542;2022-09-09T15:30:41;0.43;;;0.40;;
73382;SDS011;61600;48.126;11.542;2022-09-09T15:33:07;1.13;;;0.70;;
73382;SDS011;61600;48.126;11.542;2022-09-09T15:35:33;3.55;;;1.00;;
73382;SDS011;61600;48.126;11.542;2022-09-09T15:38:01;1.15;;;0.50;;
73382;SDS011;61600;48.126;11.542;2022-09-09T15:40:27;3.08;;;0.70;;
73382;SDS011;61600;48.126;11.542;2022-09-09T15:42:52;2.45;;;0.52;;
73382;SDS011;61600;48.126;11.542;2022-09-09T15:45:18;1.83;;;0.85;;
73382;SDS011;61600;48.126;11.542;2022-09-09T15:47:46;3.00;;;0.80;;
73382;SDS011;61600;48.126;11.542;2022-09-09T15:50:12;2.72;;;0.70;;
73382;SDS011;61600;48.126;11.542;2022-09-09T15:52:37;1.67;;;0.70;;
73382;SDS011;61600;48.126;11.542;2022-09-09T15:55:03;1.80;;;0.60;;
73382;SDS011;61600;48.126;11.542;2022-09-09T15:57:29;1.05;;;0.50;;
73382;SDS011;61600;48.126;11.542;2022-09-09T15:59:54;1.85;;;0.80;;
73382;SDS011;61600;48.126;11.542;2022-09-09T16:02:20;2.47;;;0.60;;
73382;SDS011;61600;48.126;11.542;2022-09-09T16:04:45;1.92;;;0.82;;
73382;SDS011;61600;48.126;11.542;2022-09-09T16:07:11;4.00;;;0.80;;
73382;SDS011;61600;48.126;11.542;2022-09-09T16:09:36;3.10;;;0.70;;
73382;SDS011;61600;48.126;11.542;2022-09-09T16:12:02;3.35;;;0.80;;
73382;SDS011;61600;48.126;11.542;2022-09-09T16:14:31;2.55;;;0.60;;
73382;SDS011;61600;48.126;11.542;2022-09-09T16:16:59;1.88;;;0.70;;
73382;SDS011;61600;48.126;11.542;2022-09-09T16:19:24;2.92;;;1.35;;
73382;SDS011;61600;48.126;11.542;2022-09-09T16:21:50;1.40;;;0.60;;
73382;SDS011;61600;48.126;11.542;2022-09-09T16:24:18;2.45;;;0.73;;
73382;SDS011;61600;48.126;11.542;2022-09-09T16:26:45;3.20;;;0.60;;
73382;SDS011;61600;48.126;11.542;2022-09-09T16:29:12;1.80;;;0.70;;
73382;SDS011;61600;48.126;11.542;2022-09-09T16:34:03;3.83;;;0.83;;
73382;SDS011;61600;48.126;11.542;2022-09-09T16:36:31;3.05;;;0.70;;
73382;SDS011;61600;48.126;11.542;2022-09-09T16:38:58;2.10;;;0.43;;
73382;SDS011;61600;48.126;11.542;2022-09-09T16:41:25;1.63;;;0.70;;
73382;SDS011;61600;48.126;11.542;2022-09-09T16:43:55;0.75;;;0.43;;
73382;SDS011;61600;48.126;11.542;2022-09-09T16:46:21;1.20;;;0.60;;
73382;SDS011;61600;48.126;11.542;2022-09-09T16:48:47;1.13;;;0.60;;
73382;SDS011;61600;48.126;11.542;2022-09-09T16:51:32;1.70;;;0.70;;
73382;SDS011;61600;48.126;11.542;2022-09-09T16:53:59;1.25;;;0.63;;
73382;SDS011;61600;48.126;11.542;2022-09-09T16:56:26;2.22;;;0.70;;
73382;SDS011;61600;48.126;11.542;2022-09-09T16:58:56;1.10;;;0.60;;
73382;SDS011;61600;48.126;11.542;2022-09-09T17:01:27;1.13;;;0.52;;
73382;SDS011;61600;48.126;11.542;2022-09-09T17:03:53;3.67;;;0.80;;
73382;SDS011;61600;48.126;11.542;2022-09-09T17:06:19;1.17;;;0.55;;
73382;SDS011;61600;48.126;11.542;2022-09-09T17:08:44;1.70;;;0.75;;